Список аэропортов
Фактическая погода:

26 июня, 20:00
Температура: +16°C (+15.7*)
Ветер: сев.-восточный 3 м/с
Давление: *762 мм
неб. 990 м
неб. облачность
Время (МСК)Темп. СВетерВлажностьДавлениеОблачностьОсадки
21:00+14СЗ, 2 м/с62%1016 гПаясно
22:00+12С, 2 м/с75%1016 гПаясно
23:00+11СВ, 2 м/с89%1016 гПаясно
27 июня
00:00+10СВ, 1 м/с97%1016 гПаясно
01:00+9СВ, 1 м/с99%1016 гПаясно
02:00+8СВ, 2 м/с99%1016 гПамалооблачно
03:00+8СВ, 1 м/с98%1015 гПамалооблачно
04:00+7СВ, 1 м/с99%1015 гПас прояснениями
05:00+8Штиль 96%1014 гПаоблачно
06:00+10СВ, 1 м/с84%1014 гПаоблачно
07:00+12СВ, 2 м/с70%1013 гПамалооблачно
08:00+14СВ, 3 м/с59%1012 гПас прояснениями
09:00+16СВ, 3 м/с52%1011 гПаясно
10:00+17В, 3 м/с49%1010 гПас прояснениями
11:00+17В, 3 м/с47%1010 гПас прояснениями
12:00+18В, 4 м/с45%1009 гПаоблачно
13:00+19В, 4 м/с43%1008 гПаоблачно
14:00+20В, 5 м/с42%1007 гПаоблачно
15:00+20В, 5 м/с42%1006 гПамалооблачно
16:00+20В, 5 м/с42%1005 гПас прояснениями
17:00+20В, 6 м/с43%1004 гПаоблачно
18:00+20В, 5 м/с45%1004 гПаоблачно
19:00+19В, 5 м/с48%1004 гПаоблачно
20:00+18В, 4 м/с50%1003 гПаоблачно
21:00+17В, 2 м/с58%1003 гПаоблачно
22:00+15В, 2 м/с69%1003 гПаоблачно
23:00+13СВ, 2 м/с74%1002 гПаоблачно
28 июня
00:00+13СВ, 3 м/с70%1001 гПаоблачно
01:00+13СВ, 3 м/с71%1000 гПаоблачно
02:00+12СВ, 3 м/с74%1000 гПаоблачнодождь
03:00+12СВ, 3 м/с81%999 гПаоблачносл. дождь
04:00+12С, 4 м/с85%998 гПаоблачносл. дождь
05:00+11СВ, 5 м/с84%997 гПаоблачнодождь
06:00+12СВ, 5 м/с86%996 гПаоблачнодождь
07:00+12СВ, 6 м/с88%995 гПаоблачнодождь
08:00+12СВ, 6 м/с89%994 гПаоблачносл. дождь
09:00+13СВ, 7 м/с86%993 гПаоблачнодождь
10:00+13СВ, 7 м/с85%993 гПаоблачнодождь
11:00+13С, 7 м/с86%992 гПаоблачнодождь
12:00+13СВ, 6 м/с90%992 гПаоблачнодождь
13:00+13СВ, 7 м/с88%992 гПаоблачносл. дождь
14:00+12СВ, 6 м/с90%991 гПаоблачносл. дождь
15:00+12СВ, 6 м/с91%991 гПаоблачнодождь
16:00+12СВ, 5 м/с92%991 гПаоблачнодождь
17:00+12СВ, 5 м/с94%991 гПаоблачнодождь
18:00+12СВ, 4 м/с94%991 гПаоблачносл. дождь
19:00+12СВ, 4 м/с96%991 гПаоблачносл. дождь
20:00+12СВ, 3 м/с97%990 гПаоблачносл. дождь
21:00+12СВ, 3 м/с98%991 гПаоблачно